Архив погоды в Нижнем Чире

Метеограмма Нижний Чир
Четверг, 20 Июня
Время местн. Темп Ветер Видим Явления Облачность нижн/средн/верх Атм. давл. Влжн Точка росы ВНГО R Сост. почвы Tg s
Напр Скр Прв ур.ст ур.м изм
03:00 +19.6° С-З 3 - 20 км - ясно 754 760 0 73% +14.7° более 2.5 км - - - -
00:00 +21.3° С 2 - 20 км - ясно 754 760 +0.5 66% +14.6° более 2.5 км - - - -
Среда, 19 Июня
Время местн. Темп Ветер Видим Явления Облачность нижн/средн/верх Атм. давл. Влжн Точка росы ВНГО R Сост. почвы Tg s
Напр Скр Прв ур.ст ур.м изм
21:00 +24.2° С 2 - 20 км - облачно с прояснениями 753 760 +0.3 59% +15.8° 1 км - - - -
18:00 +26.9° С 7 10 20 км - преимущественно облачно 753 759 +0.3 51% +15.8° 1.5 км - - - -
15:00 +31.3° В 2 - 20 км - переменная облачность 753 759 -1 30% +11.6° 1.5 км - - - -
12:00 +29.4° В 2 - 20 км - переменная облачность 754 760 +0.1 26% +7.7° 1.5 км - - - -
09:00 +26.6° С 1 - 20 км - ясно 754 760 +0.2 35% +9.9° более 2.5 км - - - -
06:00 +21.8° З,С-З 2 - 20 км - ясно 754 760 0 50% +10.9° более 2.5 км - Сухая (без трещин) - -
03:00 +20.4° З,С-З 2 - 20 км - ясно 754 760 0 52% +10.1° более 2.5 км - - - -
00:00 +22° З,С-З 2 - 20 км - ясно 754 760 -0.2 48% +10.5° более 2.5 км - - - -
Вторник, 18 Июня
Время местн. Темп Ветер Видим Явления Облачность нижн/средн/верх Атм. давл. Влжн Точка росы ВНГО R Сост. почвы Tg s
Напр Скр Прв ур.ст ур.м изм
21:00 +24.1° З,С-З 4 - 20 км - ясно 754 760 +0.5 42% +10.5° более 2.5 км - - - -
18:00 +28.9° В 1 - 20 км - переменная облачность 753 759 -0.6 37% +12.7° 1.5 км - - - -
15:00 +29.4° В 2 - 20 км - переменная облачность 754 760 -0.7 33% +11.6° 1.5 км - - - -
12:00 +27.4° В 2 - 20 км - переменная облачность 755 761 -0.4 36% +10.9° 1.5 км - - - -
09:00 +24.8° С,С-В 3 - 20 км - ясно 755 761 0 46% +12.3° более 2.5 км - - - -
06:00 +19.9° С,С-З 2 - 20 км - ясно 755 761 +0.4 57% +11.2° более 2.5 км - Сухая (без трещин) - -
03:00 +18.1° С-З 2 - 20 км - ясно 755 761 +0.2 61% +10.5° более 2.5 км - - - -
00:00 +19.8° З,С-З 3 - 20 км - ясно 754 761 +0.2 53% +9.9° более 2.5 км - - - -
Понедельник, 17 Июня
Время местн. Темп Ветер Видим Явления Облачность нижн/средн/верх Атм. давл. Влжн Точка росы ВНГО R Сост. почвы Tg s
Напр Скр Прв ур.ст ур.м изм
21:00 +22.2° С 2 - 20 км - ясно 754 761 +0.5 56% +12.9° более 2.5 км - - - -
18:00 +26.2° С-В 3 - 20 км - ясно 754 760 -0.2 43% +12.5° более 2.5 км 0 - - -
15:00 +26.7° В,С-В 4 - 20 км - ясно 754 760 -0.5 41% +12.3° более 2.5 км - - - -
12:00 +25.7° В,С-В 4 - 20 км - ясно 755 761 +0.5 47% +13.6° более 2.5 км - - - -
09:00 +21.8° С 5 - 20 км - ясно 754 761 +1.2 67% +15.4° более 2.5 км - - - -
06:00 +19.5° С-В 5 - 20 км - переменная облачность 753 759 +1.1 81% +16.1° 1 км - Влажная (без луж) - -
03:00 +18° С 4 - 20 км облака рассеиваются {гроза, ливневые осадки} переменная облачность 752 758 -1 89% +16.1° 1 км - - - -
00:00 +18° Ю 2 - 10 км слабая или умеренная гроза с осадками облачно 753 759 -0.8 90% +16.3° 600 м - - - -